Time;durP1;ratioP1;P1;durP2;ratioP2;P2;SDS_P1;SDS_P2;PMS_P1;PMS_P2;Temp;Humidity;BMP_temperature;BMP_pressure;BME280_temperature;BME280_humidity;BME280_pressure;Samples;Min_cycle;Max_cycle;Signal;HPM_P1;HPM_P2
2023/10/26 00:00:18;;;;;;;18.15;15.95;;;;;;;9.70;100.00;99596.09;5021759;28;20483;-68
2023/10/26 00:02:43;;;;;;;18.25;16.08;;;;;;;9.63;100.00;99582.81;5026557;28;20029;-68
2023/10/26 00:05:08;;;;;;;17.83;15.30;;;;;;;9.60;100.00;99591.97;5020079;28;20615;-68
2023/10/26 00:07:34;;;;;;;20.63;15.73;;;;;;;9.55;100.00;99586.44;5023179;28;20029;-68
2023/10/26 00:10:00;;;;;;;21.40;16.15;;;;;;;9.51;100.00;99595.78;5012421;28;20368;-68
2023/10/26 00:12:25;;;;;;;19.85;15.50;;;;;;;9.46;100.00;99603.50;5022375;28;20036;-68
2023/10/26 00:14:50;;;;;;;17.58;14.00;;;;;;;9.31;100.00;99610.75;5021203;28;20102;-68
2023/10/26 00:17:15;;;;;;;17.75;14.00;;;;;;;9.15;100.00;99611.81;5013317;28;20026;-68
2023/10/26 00:19:41;;;;;;;18.70;14.60;;;;;;;9.09;100.00;99620.53;5018712;28;20104;-68
2023/10/26 00:22:06;;;;;;;16.33;14.48;;;;;;;9.00;100.00;99629.63;5028360;28;20116;-68
2023/10/26 00:24:31;;;;;;;15.73;13.75;;;;;;;8.86;100.00;99622.56;5015478;28;20403;-68
2023/10/26 00:26:58;;;;;;;17.33;13.45;;;;;;;8.77;100.00;99635.09;5026542;28;20021;-68
2023/10/26 00:29:23;;;;;;;19.00;14.55;;;;;;;8.64;100.00;99633.13;5021838;28;20030;-69
2023/10/26 00:31:49;;;;;;;17.90;15.25;;;;;;;8.59;100.00;99632.06;5014740;28;20029;-68
2023/10/26 00:34:14;;;;;;;19.00;16.08;;;;;;;8.53;100.00;99624.88;5018398;28;20038;-68
2023/10/26 00:36:39;;;;;;;21.38;16.48;;;;;;;8.51;100.00;99629.53;5017913;28;20029;-68
2023/10/26 00:39:05;;;;;;;21.00;16.70;;;;;;;8.55;100.00;99626.31;5023946;28;20033;-68
2023/10/26 00:41:31;;;;;;;20.92;16.13;;;;;;;8.54;100.00;99629.16;5025968;28;20573;-68
2023/10/26 00:43:56;;;;;;;25.10;17.00;;;;;;;8.58;100.00;99635.72;5034826;28;20036;-68
2023/10/26 00:46:21;;;;;;;19.73;16.38;;;;;;;8.57;100.00;99645.47;5020207;28;20058;-68
2023/10/26 00:48:47;;;;;;;21.25;16.33;;;;;;;8.53;100.00;99635.47;5018290;28;20053;-68
2023/10/26 00:51:13;;;;;;;26.67;17.58;;;;;;;8.55;100.00;99646.66;5020086;28;20391;-68
2023/10/26 00:53:40;;;;;;;21.10;15.90;;;;;;;8.53;100.00;99646.03;5019584;28;20032;-68
2023/10/26 00:56:06;;;;;;;24.45;17.75;;;;;;;8.54;100.00;99651.16;5027953;28;20037;-68
2023/10/26 00:58:32;;;;;;;22.42;17.90;;;;;;;8.53;100.00;99654.81;5017268;28;20168;-68
2023/10/26 01:00:57;;;;;;;22.08;17.92;;;;;;;8.53;100.00;99654.81;5017574;28;20141;-68
2023/10/26 01:03:24;;;;;;;25.38;18.45;;;;;;;8.57;100.00;99655.25;5008625;28;20048;-68
2023/10/26 01:05:49;;;;;;;27.77;20.23;;;;;;;8.58;100.00;99651.59;5019224;28;20026;-68
2023/10/26 01:08:14;;;;;;;23.95;19.38;;;;;;;8.58;100.00;99657.69;5024690;28;20033;-68
2023/10/26 01:10:40;;;;;;;26.63;20.50;;;;;;;8.57;100.00;99656.06;5012649;28;20030;-68
2023/10/26 01:13:05;;;;;;;28.33;20.58;;;;;;;8.48;100.00;99651.06;5016894;28;20029;-68
2023/10/26 01:15:30;;;;;;;30.90;20.55;;;;;;;8.51;100.00;99664.75;5015886;28;20539;-68
2023/10/26 01:17:56;;;;;;;28.08;20.70;;;;;;;8.47;100.00;99668.78;5034395;28;20032;-68
2023/10/26 01:20:21;;;;;;;31.60;21.40;;;;;;;8.46;100.00;99661.84;5026948;28;20021;-68
2023/10/26 01:22:46;;;;;;;33.45;20.42;;;;;;;8.42;100.00;99665.88;5028059;28;20025;-68
2023/10/26 01:25:12;;;;;;;28.15;20.48;;;;;;;8.34;100.00;99664.13;5023604;28;20022;-68
2023/10/26 01:27:38;;;;;;;27.40;20.65;;;;;;;8.32;100.00;99667.94;5016258;28;20104;-68
2023/10/26 01:30:04;;;;;;;28.23;20.65;;;;;;;8.31;100.00;99661.81;5020452;28;20025;-68
2023/10/26 01:32:30;;;;;;;26.77;20.27;;;;;;;8.25;100.00;99656.47;5023831;28;20029;-68
2023/10/26 01:34:55;;;;;;;28.05;20.67;;;;;;;8.26;100.00;99661.56;5012141;28;20022;-68
2023/10/26 01:37:20;;;;;;;29.02;20.70;;;;;;;8.22;100.00;99662.94;5022885;28;20082;-68
2023/10/26 01:39:46;;;;;;;29.73;20.10;;;;;;;8.17;100.00;99662.69;5023013;28;20076;-68
2023/10/26 01:42:12;;;;;;;24.45;19.55;;;;;;;8.15;100.00;99656.75;5020549;28;20029;-68
2023/10/26 01:44:38;;;;;;;28.27;20.20;;;;;;;8.13;100.00;99653.47;5013854;28;20076;-68
2023/10/26 01:47:04;;;;;;;26.70;19.90;;;;;;;8.11;100.00;99650.19;5027392;28;20046;-68
2023/10/26 01:49:30;;;;;;;26.48;19.48;;;;;;;8.07;100.00;99648.91;5030731;28;20029;-68
2023/10/26 01:51:55;;;;;;;26.60;19.30;;;;;;;8.08;100.00;99645.25;5035845;28;20052;-68
2023/10/26 01:54:20;;;;;;;29.67;20.13;;;;;;;8.06;100.00;99650.72;5027138;28;20293;-68
2023/10/26 01:56:46;;;;;;;30.08;21.85;;;;;;;8.10;100.00;99653.03;5035309;28;20017;-68
2023/10/26 01:59:11;;;;;;;29.60;21.88;;;;;;;8.12;100.00;99656.31;5023017;28;20449;-67
2023/10/26 02:01:36;;;;;;;32.40;21.63;;;;;;;8.13;100.00;99657.94;5025788;28;20028;-68
2023/10/26 02:04:02;;;;;;;32.38;21.88;;;;;;;8.13;100.00;99656.13;5013033;28;20028;-68
2023/10/26 02:06:27;;;;;;;31.55;21.90;;;;;;;8.16;100.00;99670.78;5010250;28;20022;-68
2023/10/26 02:08:52;;;;;;;30.65;22.05;;;;;;;8.14;100.00;99660.41;5015799;28;20519;-68
2023/10/26 02:11:18;;;;;;;32.42;21.42;;;;;;;8.14;100.00;99659.59;5020955;28;20029;-67
2023/10/26 02:13:43;;;;;;;31.02;21.63;;;;;;;8.20;100.00;99664.13;5027862;28;20475;-68
2023/10/26 02:16:08;;;;;;;36.55;22.23;;;;;;;8.20;100.00;99658.84;5017995;28;20112;-68
2023/10/26 02:18:34;;;;;;;32.67;22.20;;;;;;;8.21;100.00;99650.72;5018686;28;20090;-68
2023/10/26 02:21:00;;;;;;;30.08;21.58;;;;;;;8.18;100.00;99648.44;5019656;28;20543;-68
2023/10/26 02:23:26;;;;;;;31.55;22.90;;;;;;;8.18;100.00;99647.63;5016109;28;20033;-67
2023/10/26 02:25:51;;;;;;;30.45;20.95;;;;;;;8.16;100.00;99650.47;5029086;28;20025;-68
2023/10/26 02:28:19;;;;;;;31.98;21.42;;;;;;;8.15;100.00;99648.81;5018709;28;20100;-67
2023/10/26 02:30:45;;;;;;;32.83;21.92;;;;;;;8.16;100.00;99649.66;5019423;28;20021;-68
2023/10/26 02:33:10;;;;;;;32.78;21.58;;;;;;;8.11;100.00;99644.91;5017259;28;20032;-68
2023/10/26 02:35:37;;;;;;;29.27;21.48;;;;;;;8.19;100.00;99652.75;5012344;28;20025;-68
2023/10/26 02:38:02;;;;;;;32.20;21.55;;;;;;;8.19;100.00;99651.91;5033614;28;20552;-68
2023/10/26 02:40:27;;;;;;;32.08;21.30;;;;;;;8.17;100.00;99646.00;5020480;28;20034;-68
2023/10/26 02:42:53;;;;;;;29.55;20.65;;;;;;;8.19;100.00;99644.81;5019507;28;20025;-68
2023/10/26 02:45:18;;;;;;;26.05;19.17;;;;;;;8.21;100.00;99648.09;5028855;28;20509;-67
2023/10/26 02:47:43;;;;;;;26.65;19.20;;;;;;;8.21;100.00;99650.72;5030841;28;20033;-67
2023/10/26 02:50:09;;;;;;;24.15;18.05;;;;;;;8.22;100.00;99646.25;5028209;28;20036;-68
2023/10/26 02:52:35;;;;;;;26.20;18.42;;;;;;;8.27;100.00;99646.50;5029068;28;20029;-68
2023/10/26 02:55:00;;;;;;;24.38;18.65;;;;;;;8.24;100.00;99639.78;5030573;28;20026;-68
2023/10/26 02:57:26;;;;;;;25.48;17.98;;;;;;;8.24;100.00;99645.06;5028649;28;20020;-68
2023/10/26 02:59:51;;;;;;;28.95;19.38;;;;;;;8.23;100.00;99648.72;5024522;28;20029;-68
2023/10/26 03:02:16;;;;;;;25.20;17.17;;;;;;;8.22;100.00;99646.25;5023429;28;20429;-67
2023/10/26 03:04:42;;;;;;;19.75;15.43;;;;;;;8.19;100.00;99654.56;5029499;28;20014;-67
2023/10/26 03:07:10;;;;;;;43.60;15.43;;;;;;;8.15;100.00;99667.34;5023020;28;20033;-67
2023/10/26 03:09:35;;;;;;;20.42;15.52;;;;;;;8.16;100.00;99652.28;5027622;28;20035;-68
2023/10/26 03:12:00;;;;;;;43.25;14.18;;;;;;;8.13;100.00;99647.38;5027144;28;20573;-68
2023/10/26 03:14:26;;;;;;;33.55;14.93;;;;;;;8.14;100.00;99641.91;5018039;28;20025;-67
2023/10/26 03:16:51;;;;;;;36.15;13.85;;;;;;;8.14;100.00;99638.44;5009941;28;20048;-68
2023/10/26 03:19:16;;;;;;;38.17;12.13;;;;;;;8.13;100.00;99634.97;5016268;28;20040;-68
2023/10/26 03:21:42;;;;;;;16.52;10.77;;;;;;;8.12;100.00;99633.31;5024283;28;20497;-68
2023/10/26 03:24:08;;;;;;;201.85;13.70;;;;;;;8.00;100.00;99629.50;5025841;28;20033;-67
2023/10/26 03:26:33;;;;;;;193.40;13.88;;;;;;;7.90;100.00;99636.91;5012028;28;20022;-67
2023/10/26 03:28:58;;;;;;;64.80;14.15;;;;;;;7.85;100.00;99633.97;5027474;28;20533;-67
2023/10/26 03:31:24;;;;;;;91.95;15.43;;;;;;;7.77;100.00;99637.50;5027178;28;20024;-67
2023/10/26 03:33:49;;;;;;;71.55;13.27;;;;;;;7.66;100.00;99632.69;5022032;28;20561;-67
2023/10/26 03:36:16;;;;;;;292.30;15.25;;;;;;;7.66;100.00;99636.16;5033564;28;20033;-67
2023/10/26 03:38:42;;;;;;;160.30;16.13;;;;;;;7.64;100.00;99647.91;5025456;28;20040;-67
2023/10/26 03:41:08;;;;;;;110.13;16.80;;;;;;;7.60;100.00;99634.25;5025869;28;20052;-68
2023/10/26 03:43:34;;;;;;;76.13;14.63;;;;;;;7.53;100.00;99633.31;5008683;28;20079;-67
2023/10/26 03:45:59;;;;;;;223.52;15.70;;;;;;;7.43;100.00;99640.66;5009524;28;20025;-67
2023/10/26 03:48:24;;;;;;;128.40;14.85;;;;;;;7.35;100.00;99638.94;5026028;28;20034;-68
2023/10/26 03:50:49;;;;;;;134.98;14.85;;;;;;;7.29;100.00;99642.28;5027336;28;20044;-67
2023/10/26 03:53:15;;;;;;;113.88;14.68;;;;;;;7.31;100.00;99644.75;5022787;28;20032;-68
2023/10/26 03:55:40;;;;;;;278.33;15.07;;;;;;;7.26;100.00;99640.00;5026367;28;20025;-68
2023/10/26 03:58:05;;;;;;;128.57;12.85;;;;;;;7.26;100.00;99631.28;5011922;28;20032;-67
2023/10/26 04:00:30;;;;;;;93.82;12.10;;;;;;;7.25;100.00;99621.72;5009371;28;20025;-68
2023/10/26 04:02:56;;;;;;;33.85;12.55;;;;;;;7.26;100.00;99610.97;5009711;28;20621;-67
2023/10/26 04:05:21;;;;;;;36.28;13.40;;;;;;;7.38;100.00;99616.63;5019937;28;20024;-68
2023/10/26 04:07:46;;;;;;;83.68;12.77;;;;;;;7.38;100.00;99621.91;5023549;28;20646;-67
2023/10/26 04:10:12;;;;;;;38.03;11.10;;;;;;;7.31;100.00;99623.63;5022137;28;20545;-67
2023/10/26 04:12:37;;;;;;;29.90;11.18;;;;;;;7.30;100.00;99622.81;5018256;28;20636;-68
2023/10/26 04:15:04;;;;;;;235.35;15.50;;;;;;;7.26;100.00;99618.06;5032510;28;20102;-67
2023/10/26 04:17:30;;;;;;;205.65;15.27;;;;;;;7.29;100.00;99628.28;5016083;28;20101;-67
2023/10/26 04:19:56;;;;;;;177.60;15.35;;;;;;;7.35;100.00;99612.53;5020179;28;20030;-67
2023/10/26 04:22:23;;;;;;;332.33;17.35;;;;;;;7.37;100.00;99613.16;5009196;28;20047;-68
2023/10/26 04:24:48;;;;;;;242.45;17.42;;;;;;;7.38;100.00;99609.53;5008902;28;20499;-68
2023/10/26 04:27:13;;;;;;;243.93;15.85;;;;;;;7.36;100.00;99608.06;5008483;28;20041;-68
2023/10/26 04:29:39;;;;;;;232.02;14.82;;;;;;;7.29;100.00;99615.88;5010026;28;20046;-67
2023/10/26 04:32:04;;;;;;;222.23;17.10;;;;;;;7.24;100.00;99612.16;5008450;28;20022;-68
2023/10/26 04:34:29;;;;;;;151.13;15.30;;;;;;;7.23;100.00;99615.75;5014739;28;20390;-67
2023/10/26 04:36:55;;;;;;;128.00;14.95;;;;;;;7.17;100.00;99611.19;5021486;28;20610;-68
2023/10/26 04:39:22;;;;;;;192.57;16.60;;;;;;;7.13;100.00;99614.19;5021655;28;20032;-68
2023/10/26 04:41:47;;;;;;;93.60;15.15;;;;;;;7.10;100.00;99614.56;5018942;28;20067;-68
2023/10/26 04:44:13;;;;;;;98.30;15.15;;;;;;;7.08;100.00;99608.63;5008996;28;20057;-68
2023/10/26 04:46:38;;;;;;;123.55;16.00;;;;;;;7.08;100.00;99611.28;5016213;28;20021;-68
2023/10/26 04:49:04;;;;;;;70.22;14.90;;;;;;;7.01;100.00;99607.72;5029215;28;20026;-67
2023/10/26 04:51:29;;;;;;;75.82;14.90;;;;;;;7.01;100.00;99610.34;5029298;28;20033;-68
2023/10/26 04:53:55;;;;;;;69.53;14.63;;;;;;;6.99;100.00;99611.53;5022235;28;20036;-67
2023/10/26 04:56:20;;;;;;;59.72;14.80;;;;;;;6.96;100.00;99612.72;5025732;28;20100;-68
2023/10/26 04:58:47;;;;;;;88.78;14.43;;;;;;;6.91;100.00;99603.66;5019127;28;20033;-68
2023/10/26 05:01:12;;;;;;;99.45;14.50;;;;;;;6.91;100.00;99601.84;5026329;28;20033;-70
2023/10/26 05:03:38;;;;;;;50.97;13.50;;;;;;;6.92;100.00;99603.47;5018450;28;20028;-70
2023/10/26 05:06:03;;;;;;;46.10;13.55;;;;;;;6.83;100.00;99601.91;5017688;28;20018;-69
2023/10/26 05:08:28;;;;;;;75.43;13.55;;;;;;;6.84;100.00;99614.09;5025557;28;20549;-70
2023/10/26 05:10:54;;;;;;;69.20;13.88;;;;;;;6.79;100.00;99616.47;5024804;28;20447;-69
2023/10/26 05:13:19;;;;;;;44.92;14.27;;;;;;;6.81;100.00;99619.75;5018197;28;20029;-69
2023/10/26 05:15:44;;;;;;;70.47;14.65;;;;;;;6.79;100.00;99614.66;5019647;28;20512;-69
2023/10/26 05:18:10;;;;;;;51.15;14.82;;;;;;;6.76;100.00;99611.53;5020288;28;20467;-69
2023/10/26 05:20:37;;;;;;;86.53;15.65;;;;;;;6.61;100.00;99592.19;5016962;28;20084;-69
2023/10/26 05:23:02;;;;;;;79.60;15.43;;;;;;;6.73;100.00;99604.78;5022435;28;20044;-70
2023/10/26 05:25:28;;;;;;;87.82;15.75;;;;;;;6.75;100.00;99602.81;5023996;28;20017;-69
2023/10/26 05:27:53;;;;;;;53.72;15.70;;;;;;;6.87;100.00;99605.00;5021940;28;20032;-69
2023/10/26 05:30:18;;;;;;;80.78;16.48;;;;;;;6.91;100.00;99601.84;5021825;28;20029;-69
2023/10/26 05:32:44;;;;;;;70.63;15.25;;;;;;;6.95;100.00;99599.69;5019950;28;20037;-70
2023/10/26 05:35:09;;;;;;;120.32;14.77;;;;;;;6.91;100.00;99603.66;5023699;28;20104;-69
2023/10/26 05:37:35;;;;;;;102.57;14.55;;;;;;;6.93;100.00;99613.03;5014781;28;20033;-70
2023/10/26 05:40:01;;;;;;;73.50;15.02;;;;;;;6.89;100.00;99603.03;5017585;28;20034;-70
2023/10/26 05:42:26;;;;;;;67.15;13.93;;;;;;;6.91;100.00;99604.47;5016164;28;20053;-70
2023/10/26 05:44:55;;;;;;;53.10;14.25;;;;;;;6.97;100.00;99609.06;5017677;28;20472;-70
2023/10/26 05:47:20;;;;;;;85.03;14.30;;;;;;;6.74;100.00;99573.97;5029154;28;20035;-70
2023/10/26 05:49:46;;;;;;;96.75;14.15;;;;;;;6.90;100.00;99602.84;5026434;28;20014;-69
2023/10/26 05:52:11;;;;;;;93.45;15.38;;;;;;;6.93;100.00;99607.75;5025033;28;20476;-69
2023/10/26 05:54:36;;;;;;;120.88;15.65;;;;;;;6.84;100.00;99593.00;5031076;28;20028;-69
2023/10/26 05:57:02;;;;;;;124.00;14.70;;;;;;;6.89;100.00;99609.13;5028280;28;20034;-70
2023/10/26 05:59:27;;;;;;;63.42;14.73;;;;;;;6.95;100.00;99607.63;5018429;28;20025;-70
2023/10/26 06:01:52;;;;;;;73.18;15.05;;;;;;;6.99;100.00;99606.25;5015982;28;20037;-70
2023/10/26 06:04:18;;;;;;;80.82;15.10;;;;;;;7.05;100.00;99600.25;5021296;28;20032;-70
2023/10/26 06:06:43;;;;;;;96.55;15.50;;;;;;;7.03;100.00;99592.53;5018582;28;20053;-69
2023/10/26 06:09:10;;;;;;;92.28;15.55;;;;;;;7.09;100.00;99585.69;5028339;28;20037;-70
2023/10/26 06:11:35;;;;;;;103.03;17.40;;;;;;;7.12;100.00;99591.44;5022908;28;20030;-69
2023/10/26 06:14:01;;;;;;;88.95;16.38;;;;;;;7.22;100.00;99593.81;5020996;28;20037;-70
2023/10/26 06:16:26;;;;;;;81.15;16.58;;;;;;;7.23;100.00;99598.13;5022964;28;20069;-69
2023/10/26 06:18:51;;;;;;;101.70;16.35;;;;;;;7.20;100.00;99585.25;5025424;28;20033;-70
2023/10/26 06:21:16;;;;;;;110.60;17.60;;;;;;;7.26;100.00;99587.19;5025270;28;20486;-70
2023/10/26 06:23:42;;;;;;;135.15;17.05;;;;;;;7.27;100.00;99594.13;5013632;28;20036;-70
2023/10/26 06:26:07;;;;;;;72.70;15.52;;;;;;;7.29;100.00;99597.41;5013485;28;20026;-70
2023/10/26 06:28:32;;;;;;;114.28;15.98;;;;;;;7.31;100.00;99594.59;5020409;28;20542;-69
2023/10/26 06:31:09;;;;;;;114.85;15.93;;;;;;;7.33;100.00;99593.41;5017196;28;20041;-70
2023/10/26 06:33:34;;;;;;;164.88;16.80;;;;;;;7.34;100.00;99589.75;5017991;28;20076;-70
2023/10/26 06:35:59;;;;;;;163.77;16.30;;;;;;;7.38;100.00;99590.22;5018802;28;20037;-69
2023/10/26 06:38:25;;;;;;;278.02;18.20;;;;;;;7.29;100.00;99593.94;5023860;28;20037;-70
2023/10/26 06:40:50;;;;;;;121.90;15.50;;;;;;;7.29;100.00;99586.03;5019933;28;20040;-70
2023/10/26 06:43:15;;;;;;;126.65;15.13;;;;;;;7.29;100.00;99596.59;5023262;28;20037;-70
2023/10/26 06:45:41;;;;;;;123.63;15.57;;;;;;;7.30;100.00;99599.03;5026891;28;20017;-69
2023/10/26 06:48:06;;;;;;;96.95;15.45;;;;;;;7.26;100.00;99603.03;5032670;28;20025;-70
2023/10/26 06:50:32;;;;;;;114.25;14.57;;;;;;;7.30;100.00;99598.22;5020857;28;20021;-69
2023/10/26 06:52:57;;;;;;;118.40;15.85;;;;;;;7.29;100.00;99596.59;5021483;28;20109;-69
2023/10/26 06:55:22;;;;;;;131.80;15.85;;;;;;;7.34;100.00;99600.31;5024419;28;20025;-70
2023/10/26 06:57:48;;;;;;;133.25;15.63;;;;;;;7.34;100.00;99608.25;5029157;28;20071;-69
2023/10/26 07:00:13;;;;;;;116.63;16.38;;;;;;;7.34;100.00;99595.03;5012995;28;20139;-70
2023/10/26 07:02:38;;;;;;;110.93;15.63;;;;;;;7.39;100.00;99595.31;5009538;28;20036;-69
2023/10/26 07:05:04;;;;;;;130.48;15.27;;;;;;;7.40;100.00;99601.41;5014658;28;20033;-70
2023/10/26 07:07:32;;;;;;;74.35;14.52;;;;;;;7.41;100.00;99603.06;5029075;28;20104;-68
2023/10/26 07:09:57;;;;;;;127.30;15.55;;;;;;;7.40;100.00;99598.78;5016478;28;20048;-68
2023/10/26 07:12:23;;;;;;;79.53;14.00;;;;;;;7.28;100.00;99594.94;5018277;28;20029;-69
2023/10/26 07:14:53;;;;;;;76.32;13.70;;;;;;;7.30;100.00;99599.03;5021712;28;20039;-68
2023/10/26 07:17:23;;;;;;;132.07;16.33;;;;;;;7.20;100.00;99592.34;5023328;28;20060;-68
2023/10/26 07:19:49;;;;;;;118.35;15.02;;;;;;;7.19;100.00;99596.81;5019406;28;20045;-68
2023/10/26 07:22:15;;;;;;;108.75;15.77;;;;;;;7.21;100.00;99597.47;5012289;28;20115;-68
2023/10/26 07:24:40;;;;;;;108.25;15.65;;;;;;;7.19;100.00;99590.72;5019969;28;20488;-68
2023/10/26 07:27:05;;;;;;;91.50;15.52;;;;;;;7.19;100.00;99585.44;5030132;28;20411;-67
2023/10/26 07:29:30;;;;;;;116.43;15.40;;;;;;;7.18;100.00;99583.78;5008773;28;20080;-68
2023/10/26 07:31:56;;;;;;;41.13;14.95;;;;;;;7.27;100.00;99593.31;5030682;28;20039;-68
2023/10/26 07:34:21;;;;;;;96.28;16.27;;;;;;;7.21;100.00;99586.91;5011792;28;20045;-68
2023/10/26 07:36:46;;;;;;;111.03;16.00;;;;;;;7.27;100.00;99591.47;5010198;28;20107;-67
2023/10/26 07:39:12;;;;;;;42.92;16.48;;;;;;;7.40;100.00;99589.03;5023458;28;20525;-68
2023/10/26 07:41:37;;;;;;;47.05;15.95;;;;;;;7.47;100.00;99582.00;5012246;28;20022;-68
2023/10/26 07:44:02;;;;;;;28.25;15.45;;;;;;;7.53;100.00;99580.50;5015987;28;20403;-68
2023/10/26 07:46:28;;;;;;;47.30;16.10;;;;;;;7.50;100.00;99570.25;5024377;28;20055;-68
2023/10/26 07:48:53;;;;;;;40.42;15.48;;;;;;;7.57;100.00;99576.47;5017402;28;20499;-68
2023/10/26 07:51:18;;;;;;;46.03;16.08;;;;;;;7.67;100.00;99579.66;5026510;28;20032;-68
2023/10/26 07:53:44;;;;;;;78.97;16.23;;;;;;;7.66;100.00;99585.94;5020663;28;20026;-68
2023/10/26 07:56:10;;;;;;;129.77;15.80;;;;;;;7.72;100.00;99598.44;5025024;28;20033;-68
2023/10/26 07:58:35;;;;;;;80.88;16.23;;;;;;;7.81;100.00;99606.28;5021820;28;20029;-68
2023/10/26 08:01:07;;;;;;;200.57;16.25;;;;;;;7.78;100.00;99607.44;5013089;28;20036;-68
2023/10/26 08:03:33;;;;;;;54.65;14.82;;;;;;;7.79;100.00;99609.06;5020004;28;20069;-68
2023/10/26 08:06:00;;;;;;;110.97;16.40;;;;;;;7.85;100.00;99618.13;5029157;28;20049;-69
2023/10/26 08:08:26;;;;;;;103.00;15.65;;;;;;;7.84;100.00;99611.19;5012488;28;20022;-69
2023/10/26 08:10:51;;;;;;;283.35;17.77;;;;;;;7.81;100.00;99622.13;5023271;28;20027;-69
2023/10/26 08:13:16;;;;;;;178.68;16.95;;;;;;;7.71;100.00;99610.00;5016147;28;20051;-68
2023/10/26 08:15:42;;;;;;;158.00;16.67;;;;;;;7.73;100.00;99615.91;5008728;28;20084;-68
2023/10/26 08:18:08;;;;;;;249.02;19.27;;;;;;;7.73;100.00;99621.19;5030462;28;20515;-69
2023/10/26 08:20:33;;;;;;;152.30;16.42;;;;;;;7.64;100.00;99606.44;5017300;28;20108;-68
2023/10/26 08:22:59;;;;;;;138.23;16.25;;;;;;;7.70;100.00;99610.19;5013012;28;20452;-68
2023/10/26 08:25:24;;;;;;;121.72;16.52;;;;;;;7.66;100.00;99609.72;5017318;28;20486;-68
2023/10/26 08:27:49;;;;;;;199.15;15.48;;;;;;;7.67;100.00;99621.13;5022282;28;20032;-68
2023/10/26 08:30:15;;;;;;;223.77;15.75;;;;;;;7.51;100.00;99598.31;5016505;28;20158;-68
2023/10/26 08:32:40;;;;;;;228.48;14.60;;;;;;;7.56;100.00;99621.56;5023636;28;20028;-67
2023/10/26 08:35:05;;;;;;;246.15;16.60;;;;;;;7.50;100.00;99640.75;5018800;28;20033;-68
2023/10/26 08:37:31;;;;;;;162.45;13.52;;;;;;;7.47;100.00;99631.38;5020182;28;20094;-68
2023/10/26 08:39:56;;;;;;;118.50;13.77;;;;;;;7.53;100.00;99638.59;5021062;28;20034;-68
2023/10/26 08:42:22;;;;;;;111.75;15.30;;;;;;;7.69;100.00;99634.97;5016987;28;20112;-68
2023/10/26 08:44:48;;;;;;;291.95;16.42;;;;;;;7.69;100.00;99627.84;5009805;28;20022;-68
2023/10/26 08:47:17;;;;;;;260.40;17.05;;;;;;;7.64;100.00;99627.59;5020613;28;20034;-68
2023/10/26 08:49:45;;;;;;;113.15;15.65;;;;;;;7.77;100.00;99637.50;5016077;28;20022;-68
2023/10/26 08:52:10;;;;;;;91.85;15.80;;;;;;;7.81;100.00;99635.34;5013500;28;20026;-67
2023/10/26 08:54:37;;;;;;;82.20;14.73;;;;;;;7.85;100.00;99633.97;5025336;28;20042;-69
2023/10/26 08:57:07;;;;;;;125.53;15.05;;;;;;;7.90;100.00;99628.97;5011262;28;20442;-67
2023/10/26 08:59:33;;;;;;;88.95;15.73;;;;;;;7.93;100.00;99625.94;5011238;28;20030;-68
2023/10/26 09:01:58;;;;;;;129.20;15.80;;;;;;;8.06;100.00;99623.47;5012694;28;20522;-68
2023/10/26 09:04:23;;;;;;;212.38;14.95;;;;;;;7.95;100.00;99605.44;5011098;28;20033;-67
2023/10/26 09:06:51;;;;;;;124.80;14.90;;;;;;;8.11;100.00;99623.75;5020916;28;20017;-67
2023/10/26 09:09:16;;;;;;;164.32;15.57;;;;;;;8.17;100.00;99617.72;5017288;28;20109;-68
2023/10/26 09:11:46;;;;;;;53.58;14.77;;;;;;;8.29;100.00;99624.16;5015126;28;20114;-68
2023/10/26 09:14:13;;;;;;;137.40;14.60;;;;;;;8.32;100.00;99625.63;5021021;28;20033;-67
2023/10/26 09:16:41;;;;;;;130.55;14.77;;;;;;;8.34;100.00;99616.53;5020179;28;20036;-68
2023/10/26 09:19:07;;;;;;;106.78;13.82;;;;;;;8.33;100.00;99614.88;5016649;28;20522;-68
2023/10/26 09:21:50;;;;;;;142.20;15.60;;;;;;;8.41;100.00;99619.25;5019701;28;20028;-68
2023/10/26 09:24:26;;;;;;;115.82;14.40;;;;;;;8.47;100.00;99612.41;5016454;28;20030;-69
2023/10/26 09:26:59;;;;;;;82.43;14.75;;;;;;;8.49;100.00;99608.56;5013556;28;20028;-68
2023/10/26 09:29:40;;;;;;;138.27;14.80;;;;;;;8.52;100.00;99610.00;5026891;28;20552;-68
2023/10/26 09:32:06;;;;;;;149.07;14.05;;;;;;;8.53;100.00;99603.72;5020549;28;20511;-68
2023/10/26 09:34:42;;;;;;;52.85;12.93;;;;;;;8.58;100.00;99606.59;5022631;28;20033;-68
2023/10/26 09:37:09;;;;;;;72.55;16.17;;;;;;;8.67;100.00;99592.22;5022515;28;20103;-68
2023/10/26 09:39:36;;;;;;;63.78;14.25;;;;;;;8.71;100.00;99604.09;5032085;28;20017;-67
2023/10/26 09:42:05;;;;;;;78.90;14.73;;;;;;;8.82;100.00;99608.06;5024345;28;20068;-67
2023/10/26 09:44:32;;;;;;;79.28;15.18;;;;;;;8.82;100.00;99606.25;5022644;28;20026;-67
2023/10/26 09:46:58;;;;;;;63.42;14.90;;;;;;;8.84;100.00;99590.16;5023301;28;20029;-67
2023/10/26 09:49:25;;;;;;;103.82;15.38;;;;;;;8.92;100.00;99601.44;5023493;28;20032;-68
2023/10/26 09:51:51;;;;;;;47.72;15.75;;;;;;;9.01;100.00;99583.59;5026225;28;20022;-68
2023/10/26 09:54:22;;;;;;;87.32;16.40;;;;;;;9.08;100.00;99589.78;5022333;28;20022;-68
2023/10/26 09:56:51;;;;;;;79.30;17.15;;;;;;;9.15;100.00;99587.16;5019654;28;20021;-68
2023/10/26 09:59:17;;;;;;;40.17;16.33;;;;;;;9.22;100.00;99593.31;5013809;28;20034;-67
2023/10/26 10:01:42;;;;;;;38.17;16.02;;;;;;;9.25;100.00;99587.66;5025761;28;20178;-67
2023/10/26 10:04:09;;;;;;;50.28;16.25;;;;;;;9.27;100.00;99593.59;5018395;28;20036;-67
2023/10/26 10:06:48;;;;;;;47.85;17.80;;;;;;;9.34;100.00;99593.63;5026680;28;20108;-68
2023/10/26 10:09:13;;;;;;;32.75;17.58;;;;;;;9.37;100.00;99601.19;5022421;28;20111;-67
2023/10/26 10:11:39;;;;;;;31.70;17.05;;;;;;;9.31;100.00;99598.31;5009432;28;20045;-68
2023/10/26 10:14:05;;;;;;;32.58;18.20;;;;;;;9.23;100.00;99597.63;5014201;28;20029;-67
2023/10/26 10:16:33;;;;;;;31.95;17.73;;;;;;;9.24;100.00;99601.91;5024760;28;20052;-67
2023/10/26 10:19:18;;;;;;;31.75;19.45;;;;;;;9.35;100.00;99596.09;5023339;28;20026;-68
2023/10/26 10:21:43;;;;;;;30.92;18.55;;;;;;;9.36;100.00;99591.59;5016186;28;20518;-68
2023/10/26 10:24:09;;;;;;;33.53;19.98;;;;;;;9.34;100.00;99578.56;5013906;28;20025;-67
2023/10/26 10:27:07;;;;;;;31.75;18.83;;;;;;;9.44;100.00;99586.16;5017371;28;20045;-68
2023/10/26 10:29:32;;;;;;;32.78;19.38;;;;;;;9.44;100.00;99571.06;5018660;28;20057;-68
2023/10/26 10:31:57;;;;;;;32.90;19.27;;;;;;;9.49;100.00;99579.25;5021112;28;20060;-68
2023/10/26 10:34:28;;;;;;;30.38;19.38;;;;;;;9.50;100.00;99578.25;5019909;28;20112;-68
2023/10/26 10:37:21;;;;;;;32.72;18.98;;;;;;;9.59;100.00;99569.16;5017772;28;20384;-68
2023/10/26 10:40:23;;;;;;;33.50;20.23;;;;;;;9.63;100.00;99551.00;5017198;28;20044;-69
2023/10/26 10:42:50;;;;;;;33.53;21.42;;;;;;;9.76;100.00;99544.94;5033940;28;20632;-68
2023/10/26 10:45:17;;;;;;;34.67;21.05;;;;;;;9.90;100.00;99541.34;5012103;28;20025;-68
2023/10/26 10:47:44;;;;;;;34.55;21.50;;;;;;;9.88;100.00;99530.13;5017758;28;20403;-68
2023/10/26 10:50:22;;;;;;;31.95;20.45;;;;;;;10.06;100.00;99551.59;5023299;28;20543;-68
2023/10/26 10:52:49;;;;;;;33.67;21.58;;;;;;;10.09;100.00;99543.25;5020243;28;20042;-69
2023/10/26 10:55:20;;;;;;;34.38;21.67;;;;;;;10.18;100.00;99543.91;5020461;28;20029;-68
2023/10/26 10:58:02;;;;;;;32.67;21.50;;;;;;;10.18;100.00;99538.59;5018145;28;20029;-68
2023/10/26 11:00:42;;;;;;;31.83;20.35;;;;;;;10.05;100.00;99528.75;5014653;28;20034;-68
2023/10/26 11:03:08;;;;;;;32.88;21.58;;;;;;;10.07;100.00;99536.50;5024126;28;20057;-68
2023/10/26 11:05:38;;;;;;;33.08;21.08;;;;;;;10.07;100.00;99542.63;5014342;28;20045;-68
2023/10/26 11:08:08;;;;;;;29.67;19.27;;;;;;;10.08;100.00;99527.53;5017932;28;20026;-68
2023/10/26 11:10:34;;;;;;;31.67;20.17;;;;;;;10.16;100.00;99522.88;5014364;28;20021;-68